sensor_id;sensor_type;location;lat;lon;timestamp;P1;durP1;ratioP1;P2;durP2;ratioP2
56413;SDS011;42318;48.452;19.526;2023-08-06T00:04:17;4.38;;;3.50;;
56413;SDS011;42318;48.452;19.526;2023-08-06T00:09:17;4.68;;;3.50;;
56413;SDS011;42318;48.452;19.526;2023-08-06T00:14:18;4.80;;;3.13;;
56413;SDS011;42318;48.452;19.526;2023-08-06T00:19:19;4.28;;;3.13;;
56413;SDS011;42318;48.452;19.526;2023-08-06T00:24:20;4.43;;;3.22;;
56413;SDS011;42318;48.452;19.526;2023-08-06T00:29:21;4.55;;;3.22;;
56413;SDS011;42318;48.452;19.526;2023-08-06T00:34:21;4.22;;;3.05;;
56413;SDS011;42318;48.452;19.526;2023-08-06T00:39:22;3.75;;;3.22;;
56413;SDS011;42318;48.452;19.526;2023-08-06T00:44:23;4.43;;;3.20;;
56413;SDS011;42318;48.452;19.526;2023-08-06T00:49:24;4.40;;;3.10;;
56413;SDS011;42318;48.452;19.526;2023-08-06T00:54:25;4.72;;;3.45;;
56413;SDS011;42318;48.452;19.526;2023-08-06T00:59:28;4.22;;;3.10;;
56413;SDS011;42318;48.452;19.526;2023-08-06T01:04:30;4.28;;;3.17;;
56413;SDS011;42318;48.452;19.526;2023-08-06T01:10:00;3.72;;;3.05;;
56413;SDS011;42318;48.452;19.526;2023-08-06T01:15:37;4.20;;;3.45;;
56413;SDS011;42318;48.452;19.526;2023-08-06T01:20:45;3.97;;;3.05;;
56413;SDS011;42318;48.452;19.526;2023-08-06T01:30:59;3.58;;;3.13;;
56413;SDS011;42318;48.452;19.526;2023-08-06T01:36:03;3.05;;;2.72;;
56413;SDS011;42318;48.452;19.526;2023-08-06T01:41:06;4.18;;;3.17;;
56413;SDS011;42318;48.452;19.526;2023-08-06T01:46:07;3.95;;;3.10;;
56413;SDS011;42318;48.452;19.526;2023-08-06T01:51:08;3.28;;;2.88;;
56413;SDS011;42318;48.452;19.526;2023-08-06T01:56:08;3.63;;;2.80;;
56413;SDS011;42318;48.452;19.526;2023-08-06T02:01:09;3.20;;;2.90;;
56413;SDS011;42318;48.452;19.526;2023-08-06T02:06:10;2.97;;;2.63;;
56413;SDS011;42318;48.452;19.526;2023-08-06T02:11:11;3.63;;;2.85;;
56413;SDS011;42318;48.452;19.526;2023-08-06T02:16:11;3.83;;;3.10;;
56413;SDS011;42318;48.452;19.526;2023-08-06T02:21:12;4.13;;;2.83;;
56413;SDS011;42318;48.452;19.526;2023-08-06T02:26:13;5.10;;;3.25;;
56413;SDS011;42318;48.452;19.526;2023-08-06T02:31:14;7.05;;;2.90;;
56413;SDS011;42318;48.452;19.526;2023-08-06T02:36:15;6.45;;;3.13;;
56413;SDS011;42318;48.452;19.526;2023-08-06T02:41:15;4.28;;;2.88;;
56413;SDS011;42318;48.452;19.526;2023-08-06T02:46:16;4.53;;;2.75;;
56413;SDS011;42318;48.452;19.526;2023-08-06T02:51:17;4.13;;;2.78;;
56413;SDS011;42318;48.452;19.526;2023-08-06T02:56:18;6.07;;;3.35;;
56413;SDS011;42318;48.452;19.526;2023-08-06T03:01:19;5.60;;;2.80;;
56413;SDS011;42318;48.452;19.526;2023-08-06T03:06:19;3.88;;;2.67;;
56413;SDS011;42318;48.452;19.526;2023-08-06T03:11:20;2.70;;;2.40;;
56413;SDS011;42318;48.452;19.526;2023-08-06T03:16:21;2.83;;;2.42;;
56413;SDS011;42318;48.452;19.526;2023-08-06T03:21:22;3.58;;;2.95;;
56413;SDS011;42318;48.452;19.526;2023-08-06T03:26:22;4.47;;;2.58;;
56413;SDS011;42318;48.452;19.526;2023-08-06T03:31:23;6.60;;;2.65;;
56413;SDS011;42318;48.452;19.526;2023-08-06T03:36:24;2.92;;;2.58;;
56413;SDS011;42318;48.452;19.526;2023-08-06T03:41:25;3.30;;;2.83;;
56413;SDS011;42318;48.452;19.526;2023-08-06T03:46:26;3.47;;;2.55;;
56413;SDS011;42318;48.452;19.526;2023-08-06T03:51:26;3.92;;;3.00;;
56413;SDS011;42318;48.452;19.526;2023-08-06T03:56:27;2.90;;;2.60;;
56413;SDS011;42318;48.452;19.526;2023-08-06T04:01:28;4.00;;;3.05;;
56413;SDS011;42318;48.452;19.526;2023-08-06T04:06:29;3.53;;;2.78;;
56413;SDS011;42318;48.452;19.526;2023-08-06T04:11:30;3.22;;;2.90;;
56413;SDS011;42318;48.452;19.526;2023-08-06T04:16:31;3.50;;;2.58;;
56413;SDS011;42318;48.452;19.526;2023-08-06T04:21:31;3.10;;;2.72;;
56413;SDS011;42318;48.452;19.526;2023-08-06T04:26:32;3.28;;;2.42;;
56413;SDS011;42318;48.452;19.526;2023-08-06T04:31:33;2.97;;;2.42;;
56413;SDS011;42318;48.452;19.526;2023-08-06T04:36:34;4.43;;;2.53;;
56413;SDS011;42318;48.452;19.526;2023-08-06T04:41:34;2.88;;;2.30;;
56413;SDS011;42318;48.452;19.526;2023-08-06T04:46:35;3.72;;;2.58;;
56413;SDS011;42318;48.452;19.526;2023-08-06T04:51:36;3.47;;;2.70;;
56413;SDS011;42318;48.452;19.526;2023-08-06T04:56:37;3.88;;;2.70;;
56413;SDS011;42318;48.452;19.526;2023-08-06T05:01:38;3.20;;;2.67;;
56413;SDS011;42318;48.452;19.526;2023-08-06T05:06:38;2.80;;;2.38;;
56413;SDS011;42318;48.452;19.526;2023-08-06T05:11:39;2.95;;;2.33;;
56413;SDS011;42318;48.452;19.526;2023-08-06T05:16:40;3.47;;;2.55;;
56413;SDS011;42318;48.452;19.526;2023-08-06T05:21:41;2.75;;;2.20;;
56413;SDS011;42318;48.452;19.526;2023-08-06T05:26:41;3.22;;;2.30;;
56413;SDS011;42318;48.452;19.526;2023-08-06T05:31:42;3.08;;;2.38;;
56413;SDS011;42318;48.452;19.526;2023-08-06T05:36:43;2.92;;;2.20;;
56413;SDS011;42318;48.452;19.526;2023-08-06T05:41:44;2.80;;;2.30;;
56413;SDS011;42318;48.452;19.526;2023-08-06T05:46:45;3.08;;;2.58;;
56413;SDS011;42318;48.452;19.526;2023-08-06T05:51:46;3.22;;;2.40;;
56413;SDS011;42318;48.452;19.526;2023-08-06T05:56:46;2.40;;;2.13;;
56413;SDS011;42318;48.452;19.526;2023-08-06T06:01:47;3.45;;;2.33;;
56413;SDS011;42318;48.452;19.526;2023-08-06T06:06:48;2.33;;;2.10;;
56413;SDS011;42318;48.452;19.526;2023-08-06T06:11:49;2.85;;;2.15;;
56413;SDS011;42318;48.452;19.526;2023-08-06T06:16:50;4.07;;;2.33;;
56413;SDS011;42318;48.452;19.526;2023-08-06T06:21:51;2.22;;;2.03;;
56413;SDS011;42318;48.452;19.526;2023-08-06T06:26:53;2.55;;;2.20;;
56413;SDS011;42318;48.452;19.526;2023-08-06T06:31:54;3.22;;;2.47;;
56413;SDS011;42318;48.452;19.526;2023-08-06T06:36:55;4.97;;;2.55;;
56413;SDS011;42318;48.452;19.526;2023-08-06T06:41:56;7.05;;;4.82;;
56413;SDS011;42318;48.452;19.526;2023-08-06T06:46:56;7.93;;;4.40;;
56413;SDS011;42318;48.452;19.526;2023-08-06T06:51:57;7.63;;;3.78;;
56413;SDS011;42318;48.452;19.526;2023-08-06T06:56:58;5.50;;;3.60;;
56413;SDS011;42318;48.452;19.526;2023-08-06T07:01:59;10.52;;;4.13;;
56413;SDS011;42318;48.452;19.526;2023-08-06T07:07:00;8.65;;;3.63;;
56413;SDS011;42318;48.452;19.526;2023-08-06T07:12:00;6.50;;;3.78;;
56413;SDS011;42318;48.452;19.526;2023-08-06T07:17:02;5.03;;;2.72;;
56413;SDS011;42318;48.452;19.526;2023-08-06T07:22:03;8.05;;;2.90;;
56413;SDS011;42318;48.452;19.526;2023-08-06T07:27:04;7.25;;;2.58;;
56413;SDS011;42318;48.452;19.526;2023-08-06T07:32:06;4.70;;;2.53;;
56413;SDS011;42318;48.452;19.526;2023-08-06T07:37:07;5.57;;;2.60;;
56413;SDS011;42318;48.452;19.526;2023-08-06T07:42:08;3.42;;;1.98;;
56413;SDS011;42318;48.452;19.526;2023-08-06T07:47:11;5.95;;;2.78;;
56413;SDS011;42318;48.452;19.526;2023-08-06T07:52:12;3.72;;;2.75;;
56413;SDS011;42318;48.452;19.526;2023-08-06T07:57:12;13.55;;;3.85;;
56413;SDS011;42318;48.452;19.526;2023-08-06T08:02:15;3.50;;;2.63;;
56413;SDS011;42318;48.452;19.526;2023-08-06T08:07:16;3.42;;;2.30;;
56413;SDS011;42318;48.452;19.526;2023-08-06T08:12:17;5.50;;;2.30;;
56413;SDS011;42318;48.452;19.526;2023-08-06T08:17:18;7.30;;;3.05;;
56413;SDS011;42318;48.452;19.526;2023-08-06T08:22:18;9.13;;;3.80;;
56413;SDS011;42318;48.452;19.526;2023-08-06T08:27:19;6.72;;;2.67;;
56413;SDS011;42318;48.452;19.526;2023-08-06T08:32:20;6.75;;;2.58;;
56413;SDS011;42318;48.452;19.526;2023-08-06T08:37:21;4.30;;;2.15;;
56413;SDS011;42318;48.452;19.526;2023-08-06T08:42:22;5.82;;;2.38;;
56413;SDS011;42318;48.452;19.526;2023-08-06T08:47:23;6.80;;;2.58;;
56413;SDS011;42318;48.452;19.526;2023-08-06T08:52:25;4.43;;;2.80;;
56413;SDS011;42318;48.452;19.526;2023-08-06T08:57:30;7.93;;;2.58;;
56413;SDS011;42318;48.452;19.526;2023-08-06T09:02:32;4.38;;;2.67;;
56413;SDS011;42318;48.452;19.526;2023-08-06T09:07:41;5.13;;;2.63;;
56413;SDS011;42318;48.452;19.526;2023-08-06T09:12:44;5.22;;;2.50;;
56413;SDS011;42318;48.452;19.526;2023-08-06T09:17:46;7.30;;;3.42;;
56413;SDS011;42318;48.452;19.526;2023-08-06T09:22:47;5.18;;;2.55;;
56413;SDS011;42318;48.452;19.526;2023-08-06T09:27:49;7.10;;;3.60;;
56413;SDS011;42318;48.452;19.526;2023-08-06T09:32:51;7.38;;;3.40;;
56413;SDS011;42318;48.452;19.526;2023-08-06T09:37:52;8.20;;;4.32;;
56413;SDS011;42318;48.452;19.526;2023-08-06T09:42:53;11.77;;;3.40;;
56413;SDS011;42318;48.452;19.526;2023-08-06T09:47:57;10.80;;;3.20;;
56413;SDS011;42318;48.452;19.526;2023-08-06T09:53:02;7.05;;;3.28;;
56413;SDS011;42318;48.452;19.526;2023-08-06T09:58:05;12.48;;;3.35;;
56413;SDS011;42318;48.452;19.526;2023-08-06T10:03:07;5.95;;;4.03;;
56413;SDS011;42318;48.452;19.526;2023-08-06T10:08:10;12.00;;;3.85;;
56413;SDS011;42318;48.452;19.526;2023-08-06T10:13:11;8.13;;;4.13;;
56413;SDS011;42318;48.452;19.526;2023-08-06T10:18:14;5.68;;;2.70;;
56413;SDS011;42318;48.452;19.526;2023-08-06T10:23:21;6.93;;;2.77;;
56413;SDS011;42318;48.452;19.526;2023-08-06T10:28:34;5.03;;;2.40;;
56413;SDS011;42318;48.452;19.526;2023-08-06T10:33:43;4.93;;;2.53;;
56413;SDS011;42318;48.452;19.526;2023-08-06T10:38:48;6.07;;;2.10;;
56413;SDS011;42318;48.452;19.526;2023-08-06T10:43:50;3.63;;;1.80;;
56413;SDS011;42318;48.452;19.526;2023-08-06T10:48:51;4.50;;;1.80;;
56413;SDS011;42318;48.452;19.526;2023-08-06T10:53:52;4.88;;;1.50;;
56413;SDS011;42318;48.452;19.526;2023-08-06T10:58:54;3.03;;;1.33;;
56413;SDS011;42318;48.452;19.526;2023-08-06T11:04:01;3.65;;;1.60;;
56413;SDS011;42318;48.452;19.526;2023-08-06T11:09:03;8.10;;;1.33;;
56413;SDS011;42318;48.452;19.526;2023-08-06T11:14:04;3.28;;;1.23;;
56413;SDS011;42318;48.452;19.526;2023-08-06T11:19:07;12.43;;;1.35;;
56413;SDS011;42318;48.452;19.526;2023-08-06T11:24:09;9.40;;;1.98;;
56413;SDS011;42318;48.452;19.526;2023-08-06T11:29:11;19.08;;;1.70;;
56413;SDS011;42318;48.452;19.526;2023-08-06T11:34:12;17.58;;;1.38;;
56413;SDS011;42318;48.452;19.526;2023-08-06T11:39:12;7.03;;;0.93;;
56413;SDS011;42318;48.452;19.526;2023-08-06T11:44:14;10.73;;;1.30;;
56413;SDS011;42318;48.452;19.526;2023-08-06T11:49:15;5.63;;;1.15;;
56413;SDS011;42318;48.452;19.526;2023-08-06T11:54:15;7.32;;;1.27;;
56413;SDS011;42318;48.452;19.526;2023-08-06T11:59:16;4.78;;;0.60;;
56413;SDS011;42318;48.452;19.526;2023-08-06T12:04:20;4.65;;;0.90;;
56413;SDS011;42318;48.452;19.526;2023-08-06T12:09:20;4.13;;;1.48;;
56413;SDS011;42318;48.452;19.526;2023-08-06T12:14:21;7.60;;;0.95;;
56413;SDS011;42318;48.452;19.526;2023-08-06T12:19:24;3.55;;;0.90;;
56413;SDS011;42318;48.452;19.526;2023-08-06T12:24:25;7.20;;;1.15;;
56413;SDS011;42318;48.452;19.526;2023-08-06T12:29:26;4.35;;;0.98;;
56413;SDS011;42318;48.452;19.526;2023-08-06T12:34:27;8.10;;;0.90;;
56413;SDS011;42318;48.452;19.526;2023-08-06T12:39:28;2.63;;;0.57;;
56413;SDS011;42318;48.452;19.526;2023-08-06T12:44:29;9.75;;;2.08;;
56413;SDS011;42318;48.452;19.526;2023-08-06T12:49:30;3.65;;;0.82;;
56413;SDS011;42318;48.452;19.526;2023-08-06T12:54:33;4.90;;;0.65;;
56413;SDS011;42318;48.452;19.526;2023-08-06T12:59:37;6.40;;;0.80;;
56413;SDS011;42318;48.452;19.526;2023-08-06T13:04:40;3.47;;;0.85;;
56413;SDS011;42318;48.452;19.526;2023-08-06T13:09:41;3.30;;;1.05;;
56413;SDS011;42318;48.452;19.526;2023-08-06T13:14:42;9.60;;;1.00;;
56413;SDS011;42318;48.452;19.526;2023-08-06T13:19:43;3.60;;;0.70;;
56413;SDS011;42318;48.452;19.526;2023-08-06T13:24:43;4.57;;;0.77;;
56413;SDS011;42318;48.452;19.526;2023-08-06T13:29:44;2.88;;;0.75;;
56413;SDS011;42318;48.452;19.526;2023-08-06T13:34:45;5.13;;;1.35;;
56413;SDS011;42318;48.452;19.526;2023-08-06T13:39:47;8.05;;;0.95;;
56413;SDS011;42318;48.452;19.526;2023-08-06T13:44:48;3.45;;;0.88;;
56413;SDS011;42318;48.452;19.526;2023-08-06T13:49:48;1.60;;;0.70;;
56413;SDS011;42318;48.452;19.526;2023-08-06T13:54:49;1.73;;;0.73;;
56413;SDS011;42318;48.452;19.526;2023-08-06T13:59:50;3.20;;;0.70;;
56413;SDS011;42318;48.452;19.526;2023-08-06T14:04:54;6.65;;;0.80;;
56413;SDS011;42318;48.452;19.526;2023-08-06T14:09:55;7.55;;;0.98;;
56413;SDS011;42318;48.452;19.526;2023-08-06T14:14:58;6.18;;;0.85;;
56413;SDS011;42318;48.452;19.526;2023-08-06T14:19:59;4.05;;;0.50;;
56413;SDS011;42318;48.452;19.526;2023-08-06T14:25:01;4.57;;;0.80;;
56413;SDS011;42318;48.452;19.526;2023-08-06T14:30:02;8.88;;;1.13;;
56413;SDS011;42318;48.452;19.526;2023-08-06T14:35:03;6.90;;;0.90;;
56413;SDS011;42318;48.452;19.526;2023-08-06T14:40:05;3.28;;;0.70;;
56413;SDS011;42318;48.452;19.526;2023-08-06T14:45:06;6.38;;;0.47;;
56413;SDS011;42318;48.452;19.526;2023-08-06T14:50:07;1.25;;;0.45;;
56413;SDS011;42318;48.452;19.526;2023-08-06T14:55:09;0.32;;;0.30;;
56413;SDS011;42318;48.452;19.526;2023-08-06T15:00:10;0.57;;;0.20;;
56413;SDS011;42318;48.452;19.526;2023-08-06T15:05:12;3.90;;;0.40;;
56413;SDS011;42318;48.452;19.526;2023-08-06T15:10:13;1.02;;;0.30;;
56413;SDS011;42318;48.452;19.526;2023-08-06T15:15:15;1.73;;;0.25;;
56413;SDS011;42318;48.452;19.526;2023-08-06T15:20:15;2.92;;;0.30;;
56413;SDS011;42318;48.452;19.526;2023-08-06T15:25:16;0.17;;;0.17;;
56413;SDS011;42318;48.452;19.526;2023-08-06T15:30:17;1.02;;;0.35;;
56413;SDS011;42318;48.452;19.526;2023-08-06T15:35:18;1.38;;;0.40;;
56413;SDS011;42318;48.452;19.526;2023-08-06T15:40:19;1.67;;;0.30;;
56413;SDS011;42318;48.452;19.526;2023-08-06T15:45:20;0.77;;;0.22;;
56413;SDS011;42318;48.452;19.526;2023-08-06T15:50:21;2.08;;;0.90;;
56413;SDS011;42318;48.452;19.526;2023-08-06T15:55:21;2.78;;;0.30;;
56413;SDS011;42318;48.452;19.526;2023-08-06T16:00:22;0.47;;;0.25;;
56413;SDS011;42318;48.452;19.526;2023-08-06T16:05:23;2.35;;;0.43;;
56413;SDS011;42318;48.452;19.526;2023-08-06T16:10:24;0.60;;;0.30;;
56413;SDS011;42318;48.452;19.526;2023-08-06T16:15:25;0.20;;;0.20;;
56413;SDS011;42318;48.452;19.526;2023-08-06T16:20:25;1.30;;;0.35;;
56413;SDS011;42318;48.452;19.526;2023-08-06T16:25:26;2.05;;;0.30;;
56413;SDS011;42318;48.452;19.526;2023-08-06T16:30:27;1.92;;;0.20;;
56413;SDS011;42318;48.452;19.526;2023-08-06T16:35:31;1.65;;;0.25;;
56413;SDS011;42318;48.452;19.526;2023-08-06T16:40:32;0.28;;;0.20;;
56413;SDS011;42318;48.452;19.526;2023-08-06T16:45:36;0.22;;;0.10;;
56413;SDS011;42318;48.452;19.526;2023-08-06T16:50:38;0.32;;;0.10;;
56413;SDS011;42318;48.452;19.526;2023-08-06T16:55:39;4.47;;;0.85;;
56413;SDS011;42318;48.452;19.526;2023-08-06T17:00:40;6.00;;;0.52;;
56413;SDS011;42318;48.452;19.526;2023-08-06T17:05:41;2.55;;;0.50;;
56413;SDS011;42318;48.452;19.526;2023-08-06T17:10:42;2.78;;;0.20;;
56413;SDS011;42318;48.452;19.526;2023-08-06T17:15:43;0.75;;;0.25;;
56413;SDS011;42318;48.452;19.526;2023-08-06T17:20:44;5.18;;;0.52;;
56413;SDS011;42318;48.452;19.526;2023-08-06T17:25:46;7.05;;;0.50;;
56413;SDS011;42318;48.452;19.526;2023-08-06T17:30:47;11.05;;;0.82;;
56413;SDS011;42318;48.452;19.526;2023-08-06T17:35:48;7.63;;;0.50;;
56413;SDS011;42318;48.452;19.526;2023-08-06T17:40:53;1.63;;;0.28;;
56413;SDS011;42318;48.452;19.526;2023-08-06T17:45:55;8.95;;;0.55;;
56413;SDS011;42318;48.452;19.526;2023-08-06T17:50:56;5.78;;;0.60;;
56413;SDS011;42318;48.452;19.526;2023-08-06T17:55:57;2.83;;;0.40;;
56413;SDS011;42318;48.452;19.526;2023-08-06T18:01:01;3.72;;;0.40;;
56413;SDS011;42318;48.452;19.526;2023-08-06T18:06:02;5.68;;;2.05;;
56413;SDS011;42318;48.452;19.526;2023-08-06T18:11:02;5.50;;;0.70;;
56413;SDS011;42318;48.452;19.526;2023-08-06T18:16:04;2.28;;;0.45;;
56413;SDS011;42318;48.452;19.526;2023-08-06T18:21:05;3.92;;;0.65;;
56413;SDS011;42318;48.452;19.526;2023-08-06T18:26:05;4.10;;;0.50;;
56413;SDS011;42318;48.452;19.526;2023-08-06T18:31:06;1.25;;;0.40;;
56413;SDS011;42318;48.452;19.526;2023-08-06T18:36:08;7.10;;;0.60;;
56413;SDS011;42318;48.452;19.526;2023-08-06T18:41:09;5.32;;;0.50;;
56413;SDS011;42318;48.452;19.526;2023-08-06T18:46:10;9.85;;;0.60;;
56413;SDS011;42318;48.452;19.526;2023-08-06T18:51:10;9.52;;;1.00;;
56413;SDS011;42318;48.452;19.526;2023-08-06T18:56:11;11.80;;;0.90;;
56413;SDS011;42318;48.452;19.526;2023-08-06T19:01:12;11.20;;;2.25;;
56413;SDS011;42318;48.452;19.526;2023-08-06T19:06:13;16.27;;;1.20;;
56413;SDS011;42318;48.452;19.526;2023-08-06T19:11:14;6.93;;;0.80;;
56413;SDS011;42318;48.452;19.526;2023-08-06T19:16:15;3.13;;;1.08;;
56413;SDS011;42318;48.452;19.526;2023-08-06T19:21:16;6.10;;;0.85;;
56413;SDS011;42318;48.452;19.526;2023-08-06T19:26:17;5.78;;;1.17;;
56413;SDS011;42318;48.452;19.526;2023-08-06T19:31:18;4.65;;;0.85;;
56413;SDS011;42318;48.452;19.526;2023-08-06T19:36:18;4.32;;;0.93;;
56413;SDS011;42318;48.452;19.526;2023-08-06T19:41:21;10.50;;;0.77;;
56413;SDS011;42318;48.452;19.526;2023-08-06T19:46:22;4.63;;;0.80;;
56413;SDS011;42318;48.452;19.526;2023-08-06T19:51:23;3.80;;;0.70;;
56413;SDS011;42318;48.452;19.526;2023-08-06T19:56:25;5.45;;;1.08;;
56413;SDS011;42318;48.452;19.526;2023-08-06T20:01:29;4.65;;;0.60;;
56413;SDS011;42318;48.452;19.526;2023-08-06T20:06:30;9.40;;;1.30;;
56413;SDS011;42318;48.452;19.526;2023-08-06T20:11:31;1.77;;;0.73;;
56413;SDS011;42318;48.452;19.526;2023-08-06T20:16:33;4.72;;;0.35;;
56413;SDS011;42318;48.452;19.526;2023-08-06T20:21:34;6.10;;;0.55;;
56413;SDS011;42318;48.452;19.526;2023-08-06T20:26:35;4.25;;;0.70;;
56413;SDS011;42318;48.452;19.526;2023-08-06T20:31:36;6.22;;;0.68;;
56413;SDS011;42318;48.452;19.526;2023-08-06T20:36:37;4.18;;;1.00;;
56413;SDS011;42318;48.452;19.526;2023-08-06T20:41:38;7.20;;;0.80;;
56413;SDS011;42318;48.452;19.526;2023-08-06T20:46:39;4.45;;;0.80;;
56413;SDS011;42318;48.452;19.526;2023-08-06T20:51:39;1.75;;;0.45;;
56413;SDS011;42318;48.452;19.526;2023-08-06T20:56:40;5.47;;;1.02;;
56413;SDS011;42318;48.452;19.526;2023-08-06T21:01:41;2.80;;;0.50;;
56413;SDS011;42318;48.452;19.526;2023-08-06T21:06:42;1.60;;;0.85;;
56413;SDS011;42318;48.452;19.526;2023-08-06T21:11:43;2.70;;;0.95;;
56413;SDS011;42318;48.452;19.526;2023-08-06T21:16:43;4.30;;;1.02;;
56413;SDS011;42318;48.452;19.526;2023-08-06T21:21:44;1.55;;;0.50;;
56413;SDS011;42318;48.452;19.526;2023-08-06T21:26:46;3.00;;;0.70;;
56413;SDS011;42318;48.452;19.526;2023-08-06T21:31:47;3.85;;;0.73;;
56413;SDS011;42318;48.452;19.526;2023-08-06T21:36:47;1.60;;;0.70;;
56413;SDS011;42318;48.452;19.526;2023-08-06T21:41:51;4.50;;;0.57;;
56413;SDS011;42318;48.452;19.526;2023-08-06T21:46:51;1.17;;;0.45;;
56413;SDS011;42318;48.452;19.526;2023-08-06T21:51:52;1.35;;;0.60;;
56413;SDS011;42318;48.452;19.526;2023-08-06T21:56:53;2.28;;;0.50;;
56413;SDS011;42318;48.452;19.526;2023-08-06T22:01:54;1.08;;;0.50;;
56413;SDS011;42318;48.452;19.526;2023-08-06T22:06:54;1.80;;;0.60;;
56413;SDS011;42318;48.452;19.526;2023-08-06T22:11:55;3.42;;;0.75;;
56413;SDS011;42318;48.452;19.526;2023-08-06T22:16:56;0.80;;;0.40;;
56413;SDS011;42318;48.452;19.526;2023-08-06T22:21:58;2.03;;;0.52;;
56413;SDS011;42318;48.452;19.526;2023-08-06T22:26:59;2.20;;;0.57;;
56413;SDS011;42318;48.452;19.526;2023-08-06T22:32:00;2.40;;;0.50;;
56413;SDS011;42318;48.452;19.526;2023-08-06T22:37:00;1.42;;;0.50;;
56413;SDS011;42318;48.452;19.526;2023-08-06T22:42:01;3.25;;;0.60;;
56413;SDS011;42318;48.452;19.526;2023-08-06T22:47:02;1.88;;;0.60;;
56413;SDS011;42318;48.452;19.526;2023-08-06T22:52:04;2.33;;;0.60;;
56413;SDS011;42318;48.452;19.526;2023-08-06T22:57:06;7.72;;;0.60;;
56413;SDS011;42318;48.452;19.526;2023-08-06T23:02:07;1.60;;;0.63;;
56413;SDS011;42318;48.452;19.526;2023-08-06T23:07:08;1.30;;;0.63;;
56413;SDS011;42318;48.452;19.526;2023-08-06T23:12:09;0.93;;;0.63;;
56413;SDS011;42318;48.452;19.526;2023-08-06T23:17:10;1.05;;;0.50;;
56413;SDS011;42318;48.452;19.526;2023-08-06T23:22:10;1.17;;;0.50;;
56413;SDS011;42318;48.452;19.526;2023-08-06T23:27:11;1.83;;;0.70;;
56413;SDS011;42318;48.452;19.526;2023-08-06T23:32:12;1.45;;;0.70;;
56413;SDS011;42318;48.452;19.526;2023-08-06T23:37:13;0.95;;;0.60;;
56413;SDS011;42318;48.452;19.526;2023-08-06T23:42:14;1.52;;;0.70;;
56413;SDS011;42318;48.452;19.526;2023-08-06T23:47:15;1.55;;;0.57;;
56413;SDS011;42318;48.452;19.526;2023-08-06T23:52:15;2.78;;;0.63;;
56413;SDS011;42318;48.452;19.526;2023-08-06T23:57:16;1.95;;;0.50;;
